Round Lake, Minnesota
Current Conditions -  °F | °C
As of 10:15 AM on Thursday 18 Dec 2014 (Local Time) from KOTG Reporting Station
Overcast Overcast  
Wind Chill: 10°   Ceiling: 7000
Heat Index: 19°   Visibility: 10mi
Dew Point: 16°   Wind: 7mph
Humidity: 86%   Direction: 140°SE
Pressure: 30.23"   Gusts: NA
Location:  43.54°N, 95.47°W
Report Text: KOTG 181615Z AUTO 14006KT 10SM OVC070 M07/M09 A3023 RMK AO1
Loading
Personal Weather Stations






























Interactive Weather Map New forecast layout! Learn more

10-Day Weather Forecast

Advertisements
Track Severe Weather on mobile